Time;durP1;ratioP1;P1;durP2;ratioP2;P2;SDS_P1;SDS_P2;PMS_P1;PMS_P2;Temp;Humidity;BMP_temperature;BMP_pressure;BME280_temperature;BME280_humidity;BME280_pressure;Samples;Min_cycle;Max_cycle;Signal;HPM_P1;HPM_P2
2020/12/01 00:02:24;;;;;;;7.22;2.40;;;7.70;99.90;;;;;;5047702;28;20059;-71
2020/12/01 00:04:50;;;;;;;4.03;1.90;;;7.70;99.90;;;;;;5044833;28;20044;-70
2020/12/01 00:07:16;;;;;;;5.93;1.58;;;7.70;99.90;;;;;;5051764;28;20121;-69
2020/12/01 00:09:43;;;;;;;4.93;2.53;;;7.70;99.90;;;;;;5050848;28;20049;-71
2020/12/01 00:12:09;;;;;;;5.40;3.53;;;7.60;99.90;;;;;;5050500;28;20151;-71
2020/12/01 00:14:35;;;;;;;6.15;2.28;;;7.60;99.90;;;;;;5050177;28;20067;-71
2020/12/01 00:17:02;;;;;;;6.53;3.22;;;7.60;99.90;;;;;;5051210;28;20052;-72
2020/12/01 00:19:28;;;;;;;4.18;1.02;;;7.50;99.90;;;;;;5051029;28;20045;-72
2020/12/01 00:21:54;;;;;;;10.63;1.90;;;7.60;99.90;;;;;;5050769;28;20053;-72
2020/12/01 00:24:21;;;;;;;6.68;1.40;;;7.60;99.90;;;;;;5044050;28;20064;-72
2020/12/01 00:26:47;;;;;;;5.65;1.33;;;7.60;99.90;;;;;;5050502;28;20393;-72
2020/12/01 00:29:13;;;;;;;8.68;2.78;;;7.60;99.90;;;;;;5051028;28;20091;-72
2020/12/01 00:31:41;;;;;;;8.70;2.17;;;7.60;99.90;;;;;;5049986;28;20049;-72
2020/12/01 00:34:10;;;;;;;6.35;1.63;;;7.70;99.90;;;;;;5049346;28;20076;-72
2020/12/01 00:36:36;;;;;;;7.85;2.15;;;7.70;99.90;;;;;;5033078;28;20049;-72
2020/12/01 00:39:05;;;;;;;9.50;4.15;;;7.70;99.90;;;;;;5051520;28;20048;-73
2020/12/01 00:41:31;;;;;;;9.30;2.10;;;7.70;99.90;;;;;;5032607;28;20419;-73
2020/12/01 00:43:57;;;;;;;9.18;2.00;;;7.70;99.90;;;;;;5049622;28;20045;-73
2020/12/01 00:46:24;;;;;;;9.05;2.10;;;7.80;99.90;;;;;;5046811;28;20054;-73
2020/12/01 00:48:50;;;;;;;11.73;5.63;;;7.70;99.90;;;;;;5032757;28;20079;-73
2020/12/01 00:51:16;;;;;;;10.68;6.25;;;7.80;99.90;;;;;;5031691;28;20049;-73
2020/12/01 00:53:43;;;;;;;13.02;4.47;;;7.70;99.90;;;;;;5049056;28;20403;-73
2020/12/01 00:56:10;;;;;;;10.90;4.82;;;7.80;99.90;;;;;;5047726;28;20056;-73
2020/12/01 00:58:36;;;;;;;11.70;6.07;;;7.80;99.90;;;;;;5048702;28;20052;-72
2020/12/01 01:01:03;;;;;;;11.45;6.25;;;7.80;99.90;;;;;;5050316;28;20063;-73
2020/12/01 01:03:29;;;;;;;10.55;2.45;;;7.80;99.90;;;;;;5047600;28;20141;-72
2020/12/01 01:05:56;;;;;;;14.38;2.50;;;7.80;99.90;;;;;;5048237;28;20107;-73
2020/12/01 01:08:22;;;;;;;14.10;2.40;;;7.70;99.90;;;;;;5050645;28;20041;-73
2020/12/01 01:10:49;;;;;;;13.23;3.03;;;7.70;99.90;;;;;;5051057;28;20137;-73
2020/12/01 01:13:15;;;;;;;13.75;3.20;;;7.70;99.90;;;;;;5049456;28;20049;-73
2020/12/01 01:15:44;;;;;;;11.30;3.47;;;7.70;99.90;;;;;;5030958;28;20072;-73
2020/12/01 01:18:10;;;;;;;13.15;2.30;;;7.70;99.90;;;;;;5032501;28;20049;-73
2020/12/01 01:20:37;;;;;;;13.73;3.22;;;7.70;99.90;;;;;;5050886;28;20054;-73
2020/12/01 01:23:03;;;;;;;14.40;3.35;;;7.70;99.90;;;;;;5050057;28;20431;-72
2020/12/01 01:25:30;;;;;;;6.28;2.65;;;7.70;99.90;;;;;;5029222;28;20347;-73
2020/12/01 01:27:56;;;;;;;13.70;3.92;;;7.70;99.90;;;;;;5047257;28;20476;-73
2020/12/01 01:30:23;;;;;;;11.10;3.90;;;7.70;99.90;;;;;;5049904;28;20060;-72
2020/12/01 01:32:51;;;;;;;9.68;2.35;;;7.70;99.90;;;;;;5030269;28;20095;-73
2020/12/01 01:35:18;;;;;;;8.02;1.48;;;7.70;99.90;;;;;;5054491;28;20508;-73
2020/12/01 01:37:44;;;;;;;16.42;2.17;;;7.70;99.90;;;;;;5053711;28;20051;-73
2020/12/01 01:40:26;;;;;;;16.83;2.28;;;7.70;99.90;;;;;;5051446;28;20099;-73
2020/12/01 01:42:52;;;;;;;14.02;2.92;;;7.70;99.90;;;;;;5030534;28;20455;-72
2020/12/01 01:45:54;;;;;;;11.93;2.90;;;7.60;99.90;;;;;;5049789;28;20045;-73
2020/12/01 01:48:26;;;;;;;10.20;2.58;;;7.60;99.90;;;;;;4953001;29;20054;-73
2020/12/01 01:51:00;;;;;;;12.80;3.22;;;7.60;99.90;;;;;;5033935;28;20049;-73
2020/12/01 01:53:30;;;;;;;17.90;2.75;;;7.60;99.90;;;;;;5051072;28;20046;-73
2020/12/01 01:56:01;;;;;;;7.47;2.55;;;7.60;99.90;;;;;;5035902;28;20431;-73
2020/12/01 01:58:37;;;;;;;4.72;1.40;;;7.60;99.90;;;;;;5053622;28;20045;-73
2020/12/01 02:01:14;;;;;;;7.55;1.40;;;7.50;99.90;;;;;;5053057;28;20131;-73
2020/12/01 02:03:40;;;;;;;4.55;2.80;;;7.50;99.90;;;;;;5052437;28;20056;-73
2020/12/01 02:06:27;;;;;;;7.00;1.95;;;7.50;99.90;;;;;;5053397;28;20056;-73
2020/12/01 02:08:58;;;;;;;6.57;3.40;;;7.50;99.90;;;;;;5051480;28;20088;-73
2020/12/01 02:11:26;;;;;;;5.50;2.22;;;7.50;99.90;;;;;;5047153;28;20487;-73
2020/12/01 02:14:05;;;;;;;6.80;1.85;;;7.50;99.90;;;;;;5052513;28;20222;-73
2020/12/01 02:16:35;;;;;;;3.90;2.20;;;7.50;99.90;;;;;;5049714;28;20055;-73
2020/12/01 02:19:04;;;;;;;8.27;2.05;;;7.50;99.90;;;;;;5047177;28;20045;-73
2020/12/01 02:21:35;;;;;;;7.70;3.65;;;7.50;99.90;;;;;;5052610;28;20444;-73
2020/12/01 02:24:05;;;;;;;5.38;2.95;;;7.40;99.90;;;;;;5052319;28;20047;-73
2020/12/01 02:26:32;;;;;;;7.63;3.22;;;7.40;99.90;;;;;;5053072;28;20412;-73
2020/12/01 02:29:03;;;;;;;9.65;4.15;;;7.40;99.90;;;;;;5035434;28;20049;-73
2020/12/01 02:31:29;;;;;;;8.68;1.80;;;7.40;99.90;;;;;;5055278;28;20502;-73
2020/12/01 02:33:55;;;;;;;6.53;1.83;;;7.40;99.90;;;;;;5046979;28;20047;-73
2020/12/01 02:36:22;;;;;;;8.10;1.23;;;7.40;99.90;;;;;;5066869;28;20041;-73
2020/12/01 02:38:48;;;;;;;12.23;3.28;;;7.40;99.90;;;;;;5067796;28;20531;-73
2020/12/01 02:41:15;;;;;;;8.02;2.05;;;7.40;99.90;;;;;;5055126;28;20497;-73
2020/12/01 02:43:41;;;;;;;7.45;2.13;;;7.30;99.90;;;;;;5063958;28;20088;-73
2020/12/01 02:46:08;;;;;;;4.25;1.48;;;7.30;99.90;;;;;;5069652;28;20540;-73
2020/12/01 02:48:34;;;;;;;5.88;1.45;;;7.30;99.90;;;;;;5072810;28;20054;-73
2020/12/01 02:51:00;;;;;;;7.85;1.70;;;7.30;99.90;;;;;;5065836;28;20044;-73
2020/12/01 02:53:26;;;;;;;9.05;1.45;;;7.30;99.90;;;;;;5062675;28;20036;-73
2020/12/01 02:55:53;;;;;;;5.70;1.50;;;7.40;99.90;;;;;;5042496;28;20047;-73
2020/12/01 02:58:19;;;;;;;7.30;1.60;;;7.40;99.90;;;;;;5073060;28;20053;-73
2020/12/01 03:00:47;;;;;;;5.05;1.48;;;7.40;99.90;;;;;;5072973;28;20052;-73
2020/12/01 03:03:13;;;;;;;8.25;1.35;;;7.40;99.90;;;;;;5053003;28;20072;-73
2020/12/01 03:05:40;;;;;;;3.58;1.40;;;7.40;99.90;;;;;;5071900;28;20045;-73
2020/12/01 03:08:06;;;;;;;5.20;1.35;;;7.40;99.90;;;;;;5071458;28;20053;-73
2020/12/01 03:10:33;;;;;;;7.28;1.27;;;7.40;99.90;;;;;;5068481;28;20356;-73
2020/12/01 03:12:59;;;;;;;3.10;1.20;;;7.40;99.90;;;;;;5059807;28;20127;-73
2020/12/01 03:15:26;;;;;;;4.15;1.30;;;7.40;99.90;;;;;;5071242;28;20049;-73
2020/12/01 03:17:52;;;;;;;5.35;1.50;;;7.40;99.90;;;;;;5070886;28;20128;-73
2020/12/01 03:20:18;;;;;;;5.25;1.52;;;7.40;99.90;;;;;;5072542;28;20040;-73
2020/12/01 03:22:44;;;;;;;6.90;1.42;;;7.40;99.90;;;;;;5068092;28;20052;-73
2020/12/01 03:25:11;;;;;;;4.28;1.50;;;7.40;99.90;;;;;;5067842;28;20075;-73
2020/12/01 03:27:37;;;;;;;11.32;1.30;;;7.30;99.90;;;;;;5052722;28;20044;-73
2020/12/01 03:30:06;;;;;;;2.75;0.90;;;7.40;99.90;;;;;;5062731;28;20053;-73
2020/12/01 03:32:32;;;;;;;3.63;0.82;;;7.40;99.90;;;;;;5031631;28;20045;-73
2020/12/01 03:34:59;;;;;;;6.95;1.30;;;7.30;99.90;;;;;;5049078;28;20075;-73
2020/12/01 03:37:27;;;;;;;4.82;1.50;;;7.30;99.90;;;;;;5031623;28;20053;-73
2020/12/01 03:39:53;;;;;;;4.85;1.50;;;7.30;99.90;;;;;;5052297;28;20047;-73
2020/12/01 03:42:20;;;;;;;4.43;1.10;;;7.30;99.90;;;;;;5050610;28;20083;-73
2020/12/01 03:44:46;;;;;;;7.25;1.27;;;7.30;99.90;;;;;;5051711;28;20048;-73
2020/12/01 03:47:13;;;;;;;4.72;1.25;;;7.30;99.90;;;;;;5046529;28;20045;-73
2020/12/01 03:49:39;;;;;;;3.85;1.05;;;7.30;99.90;;;;;;5048315;28;20045;-72
2020/12/01 03:52:06;;;;;;;6.22;1.33;;;7.30;99.90;;;;;;5042683;28;20164;-72
2020/12/01 03:54:32;;;;;;;3.35;1.05;;;7.20;99.90;;;;;;5051005;28;20048;-72
2020/12/01 03:56:59;;;;;;;7.13;1.23;;;7.20;99.90;;;;;;5047800;28;20037;-72
2020/12/01 03:59:25;;;;;;;3.42;1.00;;;7.20;99.90;;;;;;5050811;28;20048;-73
2020/12/01 04:01:54;;;;;;;2.58;0.75;;;7.20;99.90;;;;;;5042869;28;20072;-72
2020/12/01 04:04:21;;;;;;;4.88;1.23;;;7.20;99.90;;;;;;5033419;28;20080;-72
2020/12/01 04:06:49;;;;;;;3.55;0.85;;;7.20;99.90;;;;;;5033057;28;20047;-77
2020/12/01 04:09:15;;;;;;;3.67;0.90;;;7.20;99.90;;;;;;5034985;28;20052;-76
2020/12/01 04:11:42;;;;;;;1.77;0.70;;;7.20;99.90;;;;;;5032855;28;20295;-73
2020/12/01 04:14:08;;;;;;;2.75;1.10;;;7.20;99.90;;;;;;5051519;28;20049;-73
2020/12/01 04:16:35;;;;;;;5.85;1.25;;;7.20;99.90;;;;;;5050192;28;20484;-71
2020/12/01 04:19:01;;;;;;;4.00;1.10;;;7.20;99.90;;;;;;5034312;28;20040;-71
2020/12/01 04:21:28;;;;;;;4.80;1.92;;;7.20;99.90;;;;;;5050937;28;20053;-71
2020/12/01 04:23:54;;;;;;;6.85;2.83;;;7.20;99.90;;;;;;5049123;28;20049;-73
2020/12/01 04:26:22;;;;;;;2.50;1.10;;;7.20;99.90;;;;;;5023365;28;20492;-73
2020/12/01 04:28:49;;;;;;;3.40;1.37;;;7.20;99.90;;;;;;5047326;28;20102;-73
2020/12/01 04:31:15;;;;;;;7.78;1.48;;;7.30;99.90;;;;;;5050703;28;20041;-73
2020/12/01 04:33:42;;;;;;;4.97;1.25;;;7.30;99.90;;;;;;5051580;28;20175;-74
2020/12/01 04:36:09;;;;;;;7.40;1.48;;;7.30;99.90;;;;;;5050583;28;20591;-73
2020/12/01 04:38:35;;;;;;;4.97;1.00;;;7.30;99.90;;;;;;5050850;28;20400;-73
2020/12/01 04:41:02;;;;;;;6.75;0.85;;;7.30;99.90;;;;;;5050384;28;20377;-74
2020/12/01 04:43:41;;;;;;;4.63;1.05;;;7.30;99.90;;;;;;5030509;28;20136;-73
2020/12/01 04:46:18;;;;;;;3.28;1.30;;;7.40;99.90;;;;;;5048533;28;20070;-73
2020/12/01 04:48:48;;;;;;;6.28;1.50;;;7.40;99.90;;;;;;5051893;28;20414;-74
2020/12/01 04:51:41;;;;;;;2.35;1.55;;;7.40;99.90;;;;;;5051138;28;20419;-73
2020/12/01 04:54:35;;;;;;;3.67;0.82;;;7.40;99.90;;;;;;5020470;28;20083;-73
2020/12/01 04:57:39;;;;;;;3.17;1.23;;;7.40;99.90;;;;;;5046702;28;20044;-73
2020/12/01 05:00:17;;;;;;;3.08;1.10;;;7.40;99.90;;;;;;5051703;28;20049;-73
2020/12/01 05:03:00;;;;;;;4.63;1.08;;;7.40;99.90;;;;;;5050303;28;20235;-73
2020/12/01 05:06:21;;;;;;;3.67;1.15;;;7.40;99.90;;;;;;5050461;28;20065;-74
2020/12/01 05:09:23;;;;;;;5.80;1.20;;;7.40;99.90;;;;;;5030795;28;20040;-75
2020/12/01 05:11:55;;;;;;;3.70;1.30;;;7.40;99.90;;;;;;4969625;28;20084;-74
2020/12/01 05:14:36;;;;;;;5.32;1.08;;;7.40;99.90;;;;;;5037278;28;20053;-73
2020/12/01 05:17:40;;;;;;;3.72;1.27;;;7.40;99.90;;;;;;5049792;28;20132;-74
2020/12/01 05:20:07;;;;;;;5.80;1.20;;;7.40;99.90;;;;;;5054385;28;20687;-73
2020/12/01 05:22:37;;;;;;;1.98;1.00;;;7.50;99.90;;;;;;5036840;28;20103;-73
2020/12/01 05:25:19;;;;;;;4.63;1.42;;;7.50;99.90;;;;;;5030780;28;20449;-73
2020/12/01 05:27:46;;;;;;;2.03;1.10;;;7.50;99.90;;;;;;5045458;28;20052;-73
2020/12/01 05:30:22;;;;;;;4.20;1.13;;;7.50;99.90;;;;;;5051880;28;20041;-73
2020/12/01 05:33:24;;;;;;;4.88;1.20;;;7.60;99.90;;;;;;5051042;28;20067;-74
2020/12/01 05:36:20;;;;;;;3.08;1.23;;;7.60;99.90;;;;;;5054710;28;20057;-73
2020/12/01 05:39:18;;;;;;;1.95;1.08;;;7.60;99.90;;;;;;5052498;28;20124;-73
2020/12/01 05:41:59;;;;;;;4.13;1.27;;;7.70;99.90;;;;;;5037315;28;20048;-73
2020/12/01 05:44:29;;;;;;;1.83;0.70;;;7.70;99.90;;;;;;5053797;28;20037;-73
2020/12/01 05:47:05;;;;;;;1.33;0.70;;;7.80;99.90;;;;;;5051645;28;20076;-73
2020/12/01 05:49:42;;;;;;;1.50;0.95;;;7.80;99.90;;;;;;5032745;28;20112;-73
2020/12/01 05:52:30;;;;;;;1.88;1.63;;;7.90;99.90;;;;;;5035125;28;20045;-74
2020/12/01 05:55:12;;;;;;;5.68;1.50;;;7.90;99.90;;;;;;5049982;28;20051;-73
2020/12/01 05:57:38;;;;;;;4.05;0.85;;;8.00;99.90;;;;;;5048863;28;20057;-73
2020/12/01 06:00:17;;;;;;;5.00;1.20;;;8.00;99.90;;;;;;5042713;28;20451;-74
2020/12/01 06:02:43;;;;;;;3.42;1.20;;;8.10;99.90;;;;;;5051901;28;20123;-73
2020/12/01 06:05:16;;;;;;;4.80;0.90;;;8.10;99.90;;;;;;5052898;28;20052;-74
2020/12/01 06:07:48;;;;;;;3.78;0.90;;;8.10;99.90;;;;;;5053361;28;20476;-73
2020/12/01 06:10:30;;;;;;;5.57;1.02;;;8.20;99.90;;;;;;5051140;28;20080;-73
2020/12/01 06:13:14;;;;;;;6.80;1.00;;;8.20;99.90;;;;;;5052746;28;20155;-73
2020/12/01 06:15:53;;;;;;;7.45;1.33;;;8.20;99.90;;;;;;5051356;28;20037;-73
2020/12/01 06:18:46;;;;;;;2.15;1.13;;;8.30;99.90;;;;;;5053982;28;20540;-73
2020/12/01 06:21:12;;;;;;;6.40;2.15;;;8.30;99.90;;;;;;5042570;28;20045;-74
2020/12/01 06:24:28;;;;;;;4.13;1.20;;;8.40;99.90;;;;;;5035877;28;20475;-73
2020/12/01 06:27:12;;;;;;;6.38;1.20;;;8.30;99.90;;;;;;5046005;28;20059;-74
2020/12/01 06:30:10;;;;;;;2.85;1.27;;;8.40;99.90;;;;;;5052285;28;20144;-73
2020/12/01 06:33:16;;;;;;;6.80;1.70;;;8.40;99.90;;;;;;5034961;28;20396;-74
2020/12/01 06:36:07;;;;;;;1.50;0.77;;;8.40;99.90;;;;;;5045497;28;20051;-74
2020/12/01 06:39:16;;;;;;;3.45;1.00;;;8.40;99.90;;;;;;5052800;28;20052;-73
2020/12/01 06:42:05;;;;;;;3.50;1.35;;;8.40;99.90;;;;;;5042762;28;20322;-73
2020/12/01 06:44:31;;;;;;;4.47;1.20;;;8.40;99.90;;;;;;5052670;28;20048;-74
2020/12/01 06:46:58;;;;;;;3.17;0.90;;;8.40;99.90;;;;;;5053103;28;20140;-74
2020/12/01 06:49:28;;;;;;;3.35;1.17;;;8.40;99.90;;;;;;5053072;28;20088;-73
2020/12/01 06:52:14;;;;;;;4.18;1.50;;;8.40;99.90;;;;;;5052037;28;20059;-74
2020/12/01 06:54:51;;;;;;;6.25;1.52;;;8.30;99.90;;;;;;5051541;28;20048;-73
2020/12/01 06:57:44;;;;;;;12.02;1.60;;;8.30;99.90;;;;;;5034602;28;20052;-73
2020/12/01 07:00:10;;;;;;;11.52;1.85;;;8.30;99.90;;;;;;5047766;28;20049;-73
2020/12/01 07:02:39;;;;;;;10.55;1.95;;;8.30;99.90;;;;;;5051761;28;20049;-74
2020/12/01 07:05:25;;;;;;;13.55;2.58;;;8.30;99.90;;;;;;5034376;28;20128;-74
2020/12/01 07:07:52;;;;;;;19.05;2.97;;;8.30;99.90;;;;;;5051836;28;20088;-73
2020/12/01 07:10:27;;;;;;;8.68;1.90;;;8.30;99.90;;;;;;5027693;28;20053;-73
2020/12/01 07:13:10;;;;;;;14.55;2.50;;;8.20;99.90;;;;;;5045012;28;20047;-73
2020/12/01 07:15:50;;;;;;;14.13;2.58;;;8.20;99.90;;;;;;5050861;28;20055;-73
2020/12/01 07:18:28;;;;;;;12.20;2.58;;;8.20;99.90;;;;;;5046918;28;20128;-73
2020/12/01 07:21:23;;;;;;;14.17;2.60;;;8.20;99.90;;;;;;5050627;28;20083;-73
2020/12/01 07:23:57;;;;;;;9.57;2.47;;;8.20;99.90;;;;;;5043085;28;20061;-74
2020/12/01 07:26:45;;;;;;;10.70;1.98;;;8.20;99.90;;;;;;5027596;28;20502;-74
2020/12/01 07:29:43;;;;;;;14.02;2.63;;;8.20;99.90;;;;;;5049437;28;20049;-72
2020/12/01 07:32:41;;;;;;;14.77;2.88;;;8.20;99.90;;;;;;5032688;28;20444;-73
2020/12/01 07:35:38;;;;;;;12.30;2.13;;;8.20;99.90;;;;;;5051000;28;21957;-73
2020/12/01 07:38:29;;;;;;;8.85;1.75;;;8.20;99.90;;;;;;5049551;28;20041;-73
2020/12/01 07:41:25;;;;;;;21.63;2.60;;;8.20;99.90;;;;;;5030074;28;20464;-73
2020/12/01 07:44:06;;;;;;;13.70;2.42;;;8.20;99.90;;;;;;5051365;28;20048;-73
2020/12/01 07:49:18;;;;;;;15.75;2.40;;;8.20;99.90;;;;;;5051251;28;20056;-73
2020/12/01 07:51:46;;;;;;;15.95;2.72;;;8.20;99.90;;;;;;5046374;28;20060;-73
2020/12/01 07:54:24;;;;;;;16.57;2.90;;;8.20;99.90;;;;;;5044892;28;20448;-73
2020/12/01 07:56:51;;;;;;;12.07;2.83;;;8.20;99.90;;;;;;5051513;28;20044;-73
2020/12/01 07:59:18;;;;;;;13.40;2.22;;;8.20;99.90;;;;;;5034082;28;20396;-73
2020/12/01 08:01:45;;;;;;;10.23;2.38;;;8.20;99.90;;;;;;5051732;28;20530;-73
2020/12/01 08:04:13;;;;;;;19.05;2.72;;;8.30;99.90;;;;;;5050916;28;20071;-73
2020/12/01 08:06:40;;;;;;;14.43;2.67;;;8.20;99.90;;;;;;5051297;28;20360;-73
2020/12/01 08:09:11;;;;;;;19.67;3.30;;;8.30;99.90;;;;;;5051663;28;20124;-73
2020/12/01 08:11:41;;;;;;;14.63;3.35;;;8.30;99.90;;;;;;5032702;28;20136;-73
2020/12/01 08:14:07;;;;;;;18.35;2.85;;;8.30;99.90;;;;;;5050202;28;20071;-73
2020/12/01 08:16:33;;;;;;;15.50;2.28;;;8.30;99.90;;;;;;5051181;28;20488;-73
2020/12/01 08:19:01;;;;;;;16.45;2.75;;;8.30;99.90;;;;;;5051201;28;20044;-73
2020/12/01 08:21:36;;;;;;;15.73;2.70;;;8.30;99.90;;;;;;5033676;28;20045;-72
2020/12/01 08:24:10;;;;;;;10.50;2.72;;;8.30;99.90;;;;;;5050552;28;20061;-72
2020/12/01 08:26:39;;;;;;;15.10;2.95;;;8.40;99.90;;;;;;5043532;28;20053;-73
2020/12/01 08:29:18;;;;;;;18.88;2.88;;;8.40;99.90;;;;;;5043674;28;20071;-73
2020/12/01 08:32:03;;;;;;;11.75;2.25;;;8.40;99.90;;;;;;5024088;28;20064;-73
2020/12/01 08:34:41;;;;;;;15.77;3.13;;;8.40;99.90;;;;;;5048247;28;20082;-73
2020/12/01 08:37:40;;;;;;;11.38;1.85;;;8.40;99.90;;;;;;5031385;28;20084;-73
2020/12/01 08:40:21;;;;;;;;;;;8.40;99.90;;;;;;5051327;28;20124;-72
2020/12/01 08:43:02;;;;;;;11.85;2.60;;;8.40;99.90;;;;;;5045330;28;20332;-71
2020/12/01 08:45:34;;;;;;;11.95;2.28;;;8.40;99.90;;;;;;5044487;28;20416;-71
2020/12/01 08:48:03;;;;;;;15.98;2.92;;;8.40;99.90;;;;;;5050820;28;20412;-72
2020/12/01 08:50:38;;;;;;;14.82;2.97;;;8.50;99.90;;;;;;5051093;28;20053;-71
2020/12/01 08:53:18;;;;;;;17.20;2.92;;;8.40;99.90;;;;;;5050025;28;20071;-71
2020/12/01 08:55:48;;;;;;;12.90;2.50;;;8.40;99.90;;;;;;5050947;28;20411;-71
2020/12/01 08:58:35;;;;;;;11.80;2.30;;;8.50;99.90;;;;;;5049354;28;20399;-71
2020/12/01 09:01:11;;;;;;;9.13;2.47;;;8.50;99.90;;;;;;5050581;28;20127;-71
2020/12/01 09:03:39;;;;;;;16.42;3.00;;;8.50;99.90;;;;;;5051179;28;20045;-71
2020/12/01 09:06:20;;;;;;;12.20;2.58;;;8.50;99.90;;;;;;5049115;28;20155;-71
2020/12/01 09:08:59;;;;;;;16.48;2.63;;;8.50;99.90;;;;;;5048268;28;20051;-71
2020/12/01 09:11:57;;;;;;;16.35;3.15;;;8.50;99.90;;;;;;5049434;28;20083;-71
2020/12/01 09:17:52;;;;;;;13.05;2.38;;;8.50;99.90;;;;;;5043125;28;20148;-75
2020/12/01 09:20:53;;;;;;;10.48;2.15;;;8.50;99.90;;;;;;5044900;28;20119;-74
2020/12/01 09:23:24;;;;;;;14.38;2.65;;;8.50;99.90;;;;;;5013615;28;20049;-74
2020/12/01 09:25:55;;;;;;;11.60;2.25;;;8.50;99.90;;;;;;5038538;28;20049;-74
2020/12/01 09:28:31;;;;;;;15.40;2.50;;;8.50;99.90;;;;;;5026783;28;20064;-74
2020/12/01 09:31:04;;;;;;;14.45;2.47;;;8.60;99.90;;;;;;5051268;28;20586;-75
2020/12/01 09:33:31;;;;;;;13.23;2.40;;;8.60;99.90;;;;;;5061956;28;20136;-75
2020/12/01 09:36:03;;;;;;;9.98;1.90;;;8.70;99.90;;;;;;5063693;28;20045;-75
2020/12/01 09:38:29;;;;;;;13.73;2.38;;;8.70;99.90;;;;;;5065335;28;20052;-75
2020/12/01 09:40:55;;;;;;;14.98;1.90;;;8.70;99.90;;;;;;5066402;28;20503;-75
2020/12/01 09:43:45;;;;;;;11.07;2.42;;;8.70;99.90;;;;;;5062187;28;20049;-75
2020/12/01 09:46:13;;;;;;;13.10;2.10;;;8.70;99.90;;;;;;5056269;28;20056;-75
2020/12/01 09:48:47;;;;;;;17.20;2.10;;;8.80;99.90;;;;;;5064011;28;20125;-75
2020/12/01 09:51:15;;;;;;;11.02;1.85;;;8.70;99.90;;;;;;5060478;28;20045;-74
2020/12/01 10:12:54;;;;;;;10.80;1.50;;;8.80;99.90;;;;;;5034991;28;20135;-75
2020/12/01 10:26:29;;;;;;;11.48;1.75;;;9.00;99.90;;;;;;5073423;28;20044;-76
2020/12/01 10:34:31;;;;;;;13.38;2.53;;;9.00;99.90;;;;;;5042623;28;20049;-76
2020/12/01 10:36:58;;;;;;;11.68;2.20;;;9.00;99.90;;;;;;5030119;28;20046;-76
2020/12/01 10:39:29;;;;;;;8.98;1.80;;;9.00;99.90;;;;;;5053202;28;20084;-77
2020/12/01 10:41:56;;;;;;;11.23;2.20;;;9.00;99.90;;;;;;5045091;28;20073;-77
2020/12/01 10:44:27;;;;;;;11.80;2.08;;;9.00;99.90;;;;;;5042980;28;20137;-76
2020/12/01 10:46:53;;;;;;;6.20;1.70;;;9.00;99.90;;;;;;5050501;28;20084;-76
2020/12/01 10:49:24;;;;;;;11.18;2.00;;;9.00;99.90;;;;;;5047775;28;20055;-77
2020/12/01 10:51:50;;;;;;;11.95;1.75;;;9.00;99.90;;;;;;5028392;28;20057;-76
2020/12/01 10:54:18;;;;;;;14.20;2.55;;;9.00;99.90;;;;;;5029718;28;20048;-76
2020/12/01 10:56:49;;;;;;;8.13;1.55;;;9.00;99.90;;;;;;5028770;28;20052;-76
2020/12/01 10:59:18;;;;;;;11.20;1.45;;;9.00;99.90;;;;;;5047604;28;20049;-76
2020/12/01 11:01:44;;;;;;;8.07;1.50;;;9.00;99.90;;;;;;5051588;28;20579;-76
2020/12/01 11:04:15;;;;;;;8.93;1.75;;;9.00;99.90;;;;;;5046321;28;20049;-76
2020/12/01 11:06:43;;;;;;;11.27;2.80;;;9.00;99.90;;;;;;5043559;28;20080;-76
2020/12/01 11:09:11;;;;;;;11.13;1.63;;;9.00;99.90;;;;;;5028487;28;20049;-76
2020/12/01 11:11:38;;;;;;;9.85;1.50;;;9.00;99.90;;;;;;5028014;28;20774;-76
2020/12/01 11:14:06;;;;;;;11.80;1.35;;;9.00;99.90;;;;;;5032400;28;20540;-76
2020/12/01 11:16:35;;;;;;;11.70;1.70;;;9.00;99.90;;;;;;5039618;28;20058;-76
2020/12/01 11:19:02;;;;;;;8.98;1.90;;;9.00;99.90;;;;;;5025993;28;20068;-76
2020/12/01 11:21:29;;;;;;;11.35;2.40;;;9.00;99.90;;;;;;5046451;28;20124;-77
2020/12/01 11:24:05;;;;;;;13.55;1.60;;;9.00;99.90;;;;;;5029408;28;20060;-76
2020/12/01 11:26:32;;;;;;;11.38;1.73;;;9.10;99.90;;;;;;5046125;28;20471;-76
2020/12/01 11:29:02;;;;;;;12.40;2.03;;;9.10;99.90;;;;;;5052943;28;20132;-76
2020/12/01 11:31:32;;;;;;;12.75;2.28;;;9.10;99.90;;;;;;5048358;28;20049;-76
2020/12/01 11:34:08;;;;;;;11.38;1.80;;;9.20;99.90;;;;;;5046797;28;20076;-76
2020/12/01 11:36:35;;;;;;;14.27;1.88;;;9.30;99.90;;;;;;5034874;28;20136;-77
2020/12/01 11:39:04;;;;;;;12.93;1.90;;;9.40;99.90;;;;;;5041507;28;20050;-77
2020/12/01 11:41:31;;;;;;;13.25;2.22;;;9.40;99.90;;;;;;5050252;28;20128;-76
2020/12/01 11:43:59;;;;;;;9.63;1.67;;;9.50;99.90;;;;;;5052117;28;20060;-77
2020/12/01 11:46:26;;;;;;;10.85;1.67;;;9.50;99.90;;;;;;5042804;28;20052;-76
2020/12/01 11:48:52;;;;;;;7.63;2.05;;;9.50;99.90;;;;;;5047171;28;20051;-77
2020/12/01 11:51:19;;;;;;;10.70;1.65;;;9.60;99.90;;;;;;5025399;28;20395;-72
2020/12/01 11:53:45;;;;;;;11.70;1.65;;;9.60;99.90;;;;;;5031353;28;20049;-72
2020/12/01 11:56:13;;;;;;;9.13;1.50;;;9.70;99.90;;;;;;5039379;28;20137;-72
2020/12/01 11:58:39;;;;;;;8.52;1.45;;;9.70;99.90;;;;;;5044884;28;20518;-72
2020/12/01 12:01:05;;;;;;;7.85;1.70;;;9.80;99.90;;;;;;5037957;28;20059;-72
2020/12/01 12:03:32;;;;;;;8.35;1.67;;;9.80;99.90;;;;;;5039828;28;20049;-70
2020/12/01 12:05:58;;;;;;;14.23;2.08;;;9.90;99.90;;;;;;5032255;28;20049;-70
2020/12/01 12:08:24;;;;;;;15.30;1.95;;;9.90;99.90;;;;;;5028366;28;20052;-70
2020/12/01 12:10:51;;;;;;;11.88;1.50;;;10.00;99.90;;;;;;5044018;28;20079;-71
2020/12/01 12:13:18;;;;;;;9.43;1.60;;;10.00;99.90;;;;;;5038314;28;20051;-71
2020/12/01 12:15:44;;;;;;;11.20;1.90;;;10.00;99.90;;;;;;5033430;28;20049;-71
2020/12/01 12:18:10;;;;;;;9.63;1.80;;;10.00;99.90;;;;;;5033568;28;20480;-71
2020/12/01 12:20:36;;;;;;;10.50;1.70;;;10.00;99.90;;;;;;5029876;28;20049;-71
2020/12/01 12:23:03;;;;;;;11.73;1.90;;;10.00;99.90;;;;;;5049703;28;20045;-71
2020/12/01 12:25:29;;;;;;;16.27;1.88;;;10.00;99.90;;;;;;5049150;28;20080;-71
2020/12/01 12:27:55;;;;;;;11.48;1.80;;;10.00;99.90;;;;;;5050090;28;20052;-71
2020/12/01 12:30:21;;;;;;;14.23;1.65;;;10.00;99.90;;;;;;5051750;28;20144;-71
2020/12/01 12:32:48;;;;;;;8.65;1.60;;;10.00;99.90;;;;;;5069514;28;20052;-71
2020/12/01 12:35:14;;;;;;;11.48;1.70;;;10.00;99.90;;;;;;5061350;28;20361;-71
2020/12/01 12:37:41;;;;;;;15.25;2.08;;;10.10;99.90;;;;;;5069435;28;20044;-71
2020/12/01 12:40:07;;;;;;;7.93;1.65;;;10.10;99.90;;;;;;5067781;28;20103;-71
2020/12/01 12:42:33;;;;;;;12.98;2.10;;;10.20;99.90;;;;;;5070403;28;20476;-71
2020/12/01 12:45:00;;;;;;;14.18;2.08;;;10.30;99.90;;;;;;5070472;28;20414;-72
2020/12/01 12:47:26;;;;;;;16.48;2.05;;;10.30;99.90;;;;;;5071650;28;20048;-72
2020/12/01 12:49:52;;;;;;;9.52;1.88;;;10.40;99.90;;;;;;5071276;28;20434;-72
2020/12/01 12:52:18;;;;;;;8.23;1.55;;;10.40;99.90;;;;;;5066667;28;20151;-72
2020/12/01 12:54:45;;;;;;;9.20;1.88;;;10.30;99.90;;;;;;5061426;28;20045;-73
2020/12/01 12:57:11;;;;;;;8.10;1.10;;;10.40;99.90;;;;;;5065141;28;20451;-72
2020/12/01 12:59:37;;;;;;;9.27;1.48;;;10.30;99.90;;;;;;5069504;28;20589;-72
2020/12/01 13:02:03;;;;;;;9.70;2.35;;;10.30;99.90;;;;;;5067349;28;20044;-72
2020/12/01 13:04:29;;;;;;;13.52;2.17;;;10.30;99.90;;;;;;5069825;28;20402;-72
2020/12/01 13:06:56;;;;;;;8.07;2.03;;;10.30;99.90;;;;;;5069022;28;20048;-72
2020/12/01 13:09:25;;;;;;;12.10;2.13;;;10.20;99.90;;;;;;5069447;28;20044;-72
2020/12/01 13:11:51;;;;;;;11.13;1.63;;;10.20;99.90;;;;;;5066037;28;20083;-72
2020/12/01 13:14:18;;;;;;;13.68;2.13;;;10.20;99.90;;;;;;5063509;28;20442;-72
2020/12/01 13:16:48;;;;;;;14.45;2.17;;;10.20;99.90;;;;;;5069392;28;20045;-72
2020/12/01 13:19:15;;;;;;;9.23;1.98;;;10.20;99.90;;;;;;5070889;28;20122;-72
2020/12/01 13:21:41;;;;;;;10.48;1.83;;;10.20;99.90;;;;;;5070112;28;20076;-72
2020/12/01 13:24:08;;;;;;;8.48;2.28;;;10.20;99.90;;;;;;5068350;28;20060;-72
2020/12/01 13:26:35;;;;;;;12.23;2.33;;;10.20;99.90;;;;;;5060396;28;20061;-72
2020/12/01 13:29:02;;;;;;;13.00;2.38;;;10.20;99.90;;;;;;5067365;28;20098;-72
2020/12/01 13:31:29;;;;;;;9.82;2.58;;;10.20;99.90;;;;;;5067488;28;20131;-72
2020/12/01 13:33:55;;;;;;;8.13;1.98;;;10.20;99.90;;;;;;5063013;28;20044;-72
2020/12/01 13:36:23;;;;;;;11.55;2.83;;;10.10;99.90;;;;;;5066718;28;20088;-72
2020/12/01 13:44:28;;;;;;;11.45;1.98;;;10.10;99.90;;;;;;4999314;28;20051;-77
2020/12/01 13:47:25;;;;;;;9.68;2.42;;;10.10;99.90;;;;;;4978854;28;20485;-78
2020/12/01 13:49:51;;;;;;;8.73;2.10;;;10.10;99.90;;;;;;4973230;28;20559;-78
2020/12/01 13:52:17;;;;;;;12.23;2.20;;;10.00;99.90;;;;;;4978442;28;20084;-78
2020/12/01 13:54:44;;;;;;;8.32;2.13;;;10.00;99.90;;;;;;4994451;28;20050;-78
2020/12/01 13:57:10;;;;;;;12.65;2.22;;;10.00;99.90;;;;;;4981173;28;20378;-78
2020/12/01 13:59:37;;;;;;;11.38;1.98;;;10.00;99.90;;;;;;4996691;28;20488;-77
2020/12/01 14:02:04;;;;;;;9.55;2.33;;;10.00;99.90;;;;;;4981960;28;20533;-79
2020/12/01 14:04:31;;;;;;;10.15;2.25;;;10.00;99.90;;;;;;4988486;28;20465;-78